sensor_id;sensor_type;location;lat;lon;timestamp;P1;P2;P0
33264;PMS5003;31404;53.974;-1.086;2023-12-07T00:00:35;19;19;
33264;PMS5003;31404;53.974;-1.086;2023-12-07T00:05:34;16;15;
33264;PMS5003;31404;53.974;-1.086;2023-12-07T00:10:34;15;15;
33264;PMS5003;31404;53.974;-1.086;2023-12-07T00:15:34;17;17;
33264;PMS5003;31404;53.974;-1.086;2023-12-07T00:20:34;17;15;
33264;PMS5003;31404;53.974;-1.086;2023-12-07T00:25:34;17;17;
33264;PMS5003;31404;53.974;-1.086;2023-12-07T00:30:34;11;10;
33264;PMS5003;31404;53.974;-1.086;2023-12-07T00:35:34;14;14;
33264;PMS5003;31404;53.974;-1.086;2023-12-07T00:40:36;13;11;
33264;PMS5003;31404;53.974;-1.086;2023-12-07T00:45:34;15;11;
33264;PMS5003;31404;53.974;-1.086;2023-12-07T00:50:34;11;11;
33264;PMS5003;31404;53.974;-1.086;2023-12-07T00:55:35;10;8;
33264;PMS5003;31404;53.974;-1.086;2023-12-07T01:00:35;17;14;
33264;PMS5003;31404;53.974;-1.086;2023-12-07T01:05:35;11;9;
33264;PMS5003;31404;53.974;-1.086;2023-12-07T01:10:35;12;12;
33264;PMS5003;31404;53.974;-1.086;2023-12-07T01:15:34;12;11;
33264;PMS5003;31404;53.974;-1.086;2023-12-07T01:20:34;14;13;
33264;PMS5003;31404;53.974;-1.086;2023-12-07T01:30:34;11;9;
33264;PMS5003;31404;53.974;-1.086;2023-12-07T01:35:34;8;8;
33264;PMS5003;31404;53.974;-1.086;2023-12-07T01:40:34;10;8;
33264;PMS5003;31404;53.974;-1.086;2023-12-07T01:45:34;15;9;
33264;PMS5003;31404;53.974;-1.086;2023-12-07T01:50:34;14;9;
33264;PMS5003;31404;53.974;-1.086;2023-12-07T01:55:34;9;9;
33264;PMS5003;31404;53.974;-1.086;2023-12-07T02:00:35;12;12;
33264;PMS5003;31404;53.974;-1.086;2023-12-07T02:05:35;10;8;
33264;PMS5003;31404;53.974;-1.086;2023-12-07T02:10:34;14;11;
33264;PMS5003;31404;53.974;-1.086;2023-12-07T02:15:35;11;9;
33264;PMS5003;31404;53.974;-1.086;2023-12-07T02:20:37;10;10;
33264;PMS5003;31404;53.974;-1.086;2023-12-07T02:25:36;8;6;
33264;PMS5003;31404;53.974;-1.086;2023-12-07T02:30:34;6;6;
33264;PMS5003;31404;53.974;-1.086;2023-12-07T02:35:34;11;11;
33264;PMS5003;31404;53.974;-1.086;2023-12-07T02:40:34;11;10;
33264;PMS5003;31404;53.974;-1.086;2023-12-07T02:45:34;9;8;
33264;PMS5003;31404;53.974;-1.086;2023-12-07T02:50:34;5;5;
33264;PMS5003;31404;53.974;-1.086;2023-12-07T02:55:34;8;8;
33264;PMS5003;31404;53.974;-1.086;2023-12-07T03:00:35;11;9;
33264;PMS5003;31404;53.974;-1.086;2023-12-07T03:05:34;10;8;
33264;PMS5003;31404;53.974;-1.086;2023-12-07T03:10:34;7;5;
33264;PMS5003;31404;53.974;-1.086;2023-12-07T03:15:34;8;7;
33264;PMS5003;31404;53.974;-1.086;2023-12-07T03:20:34;10;8;
33264;PMS5003;31404;53.974;-1.086;2023-12-07T03:25:36;11;9;
33264;PMS5003;31404;53.974;-1.086;2023-12-07T03:30:34;10;8;
33264;PMS5003;31404;53.974;-1.086;2023-12-07T03:35:34;8;8;
33264;PMS5003;31404;53.974;-1.086;2023-12-07T03:40:34;10;10;
33264;PMS5003;31404;53.974;-1.086;2023-12-07T03:45:35;8;8;
33264;PMS5003;31404;53.974;-1.086;2023-12-07T03:50:34;11;8;
33264;PMS5003;31404;53.974;-1.086;2023-12-07T03:55:34;9;9;
33264;PMS5003;31404;53.974;-1.086;2023-12-07T04:00:34;9;9;
33264;PMS5003;31404;53.974;-1.086;2023-12-07T04:05:34;11;10;
33264;PMS5003;31404;53.974;-1.086;2023-12-07T04:10:34;11;8;
33264;PMS5003;31404;53.974;-1.086;2023-12-07T04:15:35;10;10;
33264;PMS5003;31404;53.974;-1.086;2023-12-07T04:20:34;11;11;
33264;PMS5003;31404;53.974;-1.086;2023-12-07T04:25:34;11;8;
33264;PMS5003;31404;53.974;-1.086;2023-12-07T04:30:34;9;9;
33264;PMS5003;31404;53.974;-1.086;2023-12-07T04:35:34;12;10;
33264;PMS5003;31404;53.974;-1.086;2023-12-07T04:40:34;12;11;
33264;PMS5003;31404;53.974;-1.086;2023-12-07T04:45:34;12;11;
33264;PMS5003;31404;53.974;-1.086;2023-12-07T04:50:34;11;11;
33264;PMS5003;31404;53.974;-1.086;2023-12-07T04:55:34;14;10;
33264;PMS5003;31404;53.974;-1.086;2023-12-07T05:00:34;11;9;
33264;PMS5003;31404;53.974;-1.086;2023-12-07T05:05:34;12;10;
33264;PMS5003;31404;53.974;-1.086;2023-12-07T05:10:34;16;15;
33264;PMS5003;31404;53.974;-1.086;2023-12-07T05:15:34;16;13;
33264;PMS5003;31404;53.974;-1.086;2023-12-07T05:20:34;10;10;
33264;PMS5003;31404;53.974;-1.086;2023-12-07T05:25:35;15;12;
33264;PMS5003;31404;53.974;-1.086;2023-12-07T05:30:35;18;15;
33264;PMS5003;31404;53.974;-1.086;2023-12-07T05:35:34;17;14;
33264;PMS5003;31404;53.974;-1.086;2023-12-07T05:40:34;17;11;
33264;PMS5003;31404;53.974;-1.086;2023-12-07T05:45:34;12;10;
33264;PMS5003;31404;53.974;-1.086;2023-12-07T05:50:34;16;15;
33264;PMS5003;31404;53.974;-1.086;2023-12-07T05:55:34;17;13;
33264;PMS5003;31404;53.974;-1.086;2023-12-07T06:00:34;19;14;
33264;PMS5003;31404;53.974;-1.086;2023-12-07T06:05:36;15;15;
33264;PMS5003;31404;53.974;-1.086;2023-12-07T06:10:34;12;11;
33264;PMS5003;31404;53.974;-1.086;2023-12-07T06:15:34;14;14;
33264;PMS5003;31404;53.974;-1.086;2023-12-07T06:20:34;6;5;
33264;PMS5003;31404;53.974;-1.086;2023-12-07T06:25:37;15;13;
33264;PMS5003;31404;53.974;-1.086;2023-12-07T06:30:35;20;18;
33264;PMS5003;31404;53.974;-1.086;2023-12-07T06:35:34;19;15;
33264;PMS5003;31404;53.974;-1.086;2023-12-07T06:40:34;17;14;
33264;PMS5003;31404;53.974;-1.086;2023-12-07T06:45:35;12;10;
33264;PMS5003;31404;53.974;-1.086;2023-12-07T06:50:34;18;15;
33264;PMS5003;31404;53.974;-1.086;2023-12-07T06:55:34;19;17;
33264;PMS5003;31404;53.974;-1.086;2023-12-07T07:00:34;15;15;
33264;PMS5003;31404;53.974;-1.086;2023-12-07T07:05:34;21;15;
33264;PMS5003;31404;53.974;-1.086;2023-12-07T07:10:34;17;13;
33264;PMS5003;31404;53.974;-1.086;2023-12-07T07:15:34;20;19;
33264;PMS5003;31404;53.974;-1.086;2023-12-07T07:20:35;14;14;
33264;PMS5003;31404;53.974;-1.086;2023-12-07T07:25:35;17;16;
33264;PMS5003;31404;53.974;-1.086;2023-12-07T07:30:35;14;14;
33264;PMS5003;31404;53.974;-1.086;2023-12-07T07:35:35;13;13;
33264;PMS5003;31404;53.974;-1.086;2023-12-07T07:40:35;14;14;
33264;PMS5003;31404;53.974;-1.086;2023-12-07T07:45:34;16;14;
33264;PMS5003;31404;53.974;-1.086;2023-12-07T07:50:34;21;16;
33264;PMS5003;31404;53.974;-1.086;2023-12-07T07:55:34;18;13;
33264;PMS5003;31404;53.974;-1.086;2023-12-07T08:00:34;15;13;
33264;PMS5003;31404;53.974;-1.086;2023-12-07T08:05:35;15;15;
33264;PMS5003;31404;53.974;-1.086;2023-12-07T08:10:35;21;18;
33264;PMS5003;31404;53.974;-1.086;2023-12-07T08:15:35;17;14;
33264;PMS5003;31404;53.974;-1.086;2023-12-07T08:20:34;18;16;
33264;PMS5003;31404;53.974;-1.086;2023-12-07T08:25:34;18;17;
33264;PMS5003;31404;53.974;-1.086;2023-12-07T08:30:35;19;16;
33264;PMS5003;31404;53.974;-1.086;2023-12-07T08:35:40;16;16;
33264;PMS5003;31404;53.974;-1.086;2023-12-07T08:40:34;15;12;
33264;PMS5003;31404;53.974;-1.086;2023-12-07T08:45:35;19;16;
33264;PMS5003;31404;53.974;-1.086;2023-12-07T08:50:34;16;16;
33264;PMS5003;31404;53.974;-1.086;2023-12-07T08:55:34;12;12;
33264;PMS5003;31404;53.974;-1.086;2023-12-07T09:00:34;18;18;
33264;PMS5003;31404;53.974;-1.086;2023-12-07T09:05:34;22;15;
33264;PMS5003;31404;53.974;-1.086;2023-12-07T09:10:34;16;15;
33264;PMS5003;31404;53.974;-1.086;2023-12-07T09:15:34;18;14;
33264;PMS5003;31404;53.974;-1.086;2023-12-07T09:20:35;16;16;
33264;PMS5003;31404;53.974;-1.086;2023-12-07T09:25:34;17;14;
33264;PMS5003;31404;53.974;-1.086;2023-12-07T09:30:34;21;18;
33264;PMS5003;31404;53.974;-1.086;2023-12-07T09:35:34;20;19;
33264;PMS5003;31404;53.974;-1.086;2023-12-07T09:40:34;18;15;
33264;PMS5003;31404;53.974;-1.086;2023-12-07T09:45:34;15;15;
33264;PMS5003;31404;53.974;-1.086;2023-12-07T09:50:34;18;17;
33264;PMS5003;31404;53.974;-1.086;2023-12-07T09:55:34;21;18;
33264;PMS5003;31404;53.974;-1.086;2023-12-07T10:00:35;24;22;
33264;PMS5003;31404;53.974;-1.086;2023-12-07T10:05:34;21;19;
33264;PMS5003;31404;53.974;-1.086;2023-12-07T10:10:34;20;20;
33264;PMS5003;31404;53.974;-1.086;2023-12-07T10:15:34;22;18;
33264;PMS5003;31404;53.974;-1.086;2023-12-07T10:20:34;17;15;
33264;PMS5003;31404;53.974;-1.086;2023-12-07T10:25:35;22;21;
33264;PMS5003;31404;53.974;-1.086;2023-12-07T10:30:34;17;14;
33264;PMS5003;31404;53.974;-1.086;2023-12-07T10:40:34;23;20;
33264;PMS5003;31404;53.974;-1.086;2023-12-07T10:45:35;21;19;
33264;PMS5003;31404;53.974;-1.086;2023-12-07T10:50:35;22;19;
33264;PMS5003;31404;53.974;-1.086;2023-12-07T10:55:36;20;17;
33264;PMS5003;31404;53.974;-1.086;2023-12-07T11:00:35;15;15;
33264;PMS5003;31404;53.974;-1.086;2023-12-07T11:05:34;18;15;
33264;PMS5003;31404;53.974;-1.086;2023-12-07T11:10:36;16;16;
33264;PMS5003;31404;53.974;-1.086;2023-12-07T11:15:34;22;19;
33264;PMS5003;31404;53.974;-1.086;2023-12-07T11:25:34;25;21;
33264;PMS5003;31404;53.974;-1.086;2023-12-07T11:30:35;22;21;
33264;PMS5003;31404;53.974;-1.086;2023-12-07T11:40:36;24;22;
33264;PMS5003;31404;53.974;-1.086;2023-12-07T11:45:36;29;24;
33264;PMS5003;31404;53.974;-1.086;2023-12-07T11:50:34;26;25;
33264;PMS5003;31404;53.974;-1.086;2023-12-07T11:55:34;34;29;
33264;PMS5003;31404;53.974;-1.086;2023-12-07T12:00:34;31;27;
33264;PMS5003;31404;53.974;-1.086;2023-12-07T12:05:34;29;28;
33264;PMS5003;31404;53.974;-1.086;2023-12-07T12:10:34;25;23;
33264;PMS5003;31404;53.974;-1.086;2023-12-07T12:15:35;25;25;
33264;PMS5003;31404;53.974;-1.086;2023-12-07T12:20:34;31;24;
33264;PMS5003;31404;53.974;-1.086;2023-12-07T12:25:34;30;27;
33264;PMS5003;31404;53.974;-1.086;2023-12-07T12:30:35;38;30;
33264;PMS5003;31404;53.974;-1.086;2023-12-07T12:35:35;30;28;
33264;PMS5003;31404;53.974;-1.086;2023-12-07T12:40:35;35;28;
33264;PMS5003;31404;53.974;-1.086;2023-12-07T12:45:35;30;23;
33264;PMS5003;31404;53.974;-1.086;2023-12-07T12:50:36;27;25;
33264;PMS5003;31404;53.974;-1.086;2023-12-07T12:55:35;31;29;
33264;PMS5003;31404;53.974;-1.086;2023-12-07T13:00:35;30;26;
33264;PMS5003;31404;53.974;-1.086;2023-12-07T13:05:35;18;18;
33264;PMS5003;31404;53.974;-1.086;2023-12-07T13:10:35;29;28;
33264;PMS5003;31404;53.974;-1.086;2023-12-07T13:15:35;26;24;
33264;PMS5003;31404;53.974;-1.086;2023-12-07T13:20:34;31;29;
33264;PMS5003;31404;53.974;-1.086;2023-12-07T13:25:34;33;25;
33264;PMS5003;31404;53.974;-1.086;2023-12-07T13:30:34;26;23;
33264;PMS5003;31404;53.974;-1.086;2023-12-07T13:35:34;24;22;
33264;PMS5003;31404;53.974;-1.086;2023-12-07T13:40:34;29;24;
33264;PMS5003;31404;53.974;-1.086;2023-12-07T13:45:34;26;20;
33264;PMS5003;31404;53.974;-1.086;2023-12-07T13:50:34;27;23;
33264;PMS5003;31404;53.974;-1.086;2023-12-07T13:55:34;26;23;
33264;PMS5003;31404;53.974;-1.086;2023-12-07T14:00:35;27;24;
33264;PMS5003;31404;53.974;-1.086;2023-12-07T14:05:35;23;22;
33264;PMS5003;31404;53.974;-1.086;2023-12-07T14:10:34;28;22;
33264;PMS5003;31404;53.974;-1.086;2023-12-07T14:15:34;29;25;
33264;PMS5003;31404;53.974;-1.086;2023-12-07T14:20:34;24;23;
33264;PMS5003;31404;53.974;-1.086;2023-12-07T14:25:34;25;25;
33264;PMS5003;31404;53.974;-1.086;2023-12-07T14:30:34;30;24;
33264;PMS5003;31404;53.974;-1.086;2023-12-07T14:35:34;29;25;
33264;PMS5003;31404;53.974;-1.086;2023-12-07T14:40:34;31;22;
33264;PMS5003;31404;53.974;-1.086;2023-12-07T14:45:35;26;25;
33264;PMS5003;31404;53.974;-1.086;2023-12-07T14:50:35;30;28;
33264;PMS5003;31404;53.974;-1.086;2023-12-07T14:55:34;32;26;
33264;PMS5003;31404;53.974;-1.086;2023-12-07T15:00:34;23;22;
33264;PMS5003;31404;53.974;-1.086;2023-12-07T15:05:34;22;22;
33264;PMS5003;31404;53.974;-1.086;2023-12-07T15:10:34;31;26;
33264;PMS5003;31404;53.974;-1.086;2023-12-07T15:15:34;25;21;
33264;PMS5003;31404;53.974;-1.086;2023-12-07T15:20:35;23;18;
33264;PMS5003;31404;53.974;-1.086;2023-12-07T15:25:34;26;23;
33264;PMS5003;31404;53.974;-1.086;2023-12-07T15:30:34;26;22;
33264;PMS5003;31404;53.974;-1.086;2023-12-07T15:35:34;22;20;
33264;PMS5003;31404;53.974;-1.086;2023-12-07T15:40:34;25;22;
33264;PMS5003;31404;53.974;-1.086;2023-12-07T15:45:35;22;22;
33264;PMS5003;31404;53.974;-1.086;2023-12-07T15:50:33;24;20;
33264;PMS5003;31404;53.974;-1.086;2023-12-07T15:55:34;21;19;
33264;PMS5003;31404;53.974;-1.086;2023-12-07T16:00:34;21;20;
33264;PMS5003;31404;53.974;-1.086;2023-12-07T16:05:34;24;23;
33264;PMS5003;31404;53.974;-1.086;2023-12-07T16:10:34;21;20;
33264;PMS5003;31404;53.974;-1.086;2023-12-07T16:15:34;21;21;
33264;PMS5003;31404;53.974;-1.086;2023-12-07T16:20:34;26;24;
33264;PMS5003;31404;53.974;-1.086;2023-12-07T16:25:34;19;19;
33264;PMS5003;31404;53.974;-1.086;2023-12-07T16:30:34;28;23;
33264;PMS5003;31404;53.974;-1.086;2023-12-07T16:35:35;13;11;
33264;PMS5003;31404;53.974;-1.086;2023-12-07T16:40:34;21;21;
33264;PMS5003;31404;53.974;-1.086;2023-12-07T16:45:34;21;20;
33264;PMS5003;31404;53.974;-1.086;2023-12-07T16:50:34;26;21;
33264;PMS5003;31404;53.974;-1.086;2023-12-07T16:55:34;16;16;
33264;PMS5003;31404;53.974;-1.086;2023-12-07T17:00:35;20;20;
33264;PMS5003;31404;53.974;-1.086;2023-12-07T17:05:34;19;19;
33264;PMS5003;31404;53.974;-1.086;2023-12-07T17:10:34;21;18;
33264;PMS5003;31404;53.974;-1.086;2023-12-07T17:15:28;22;19;
33264;PMS5003;31404;53.974;-1.086;2023-12-07T17:20:34;20;18;
33264;PMS5003;31404;53.974;-1.086;2023-12-07T17:25:34;21;18;
33264;PMS5003;31404;53.974;-1.086;2023-12-07T17:30:34;20;17;
33264;PMS5003;31404;53.974;-1.086;2023-12-07T17:35:34;22;22;
33264;PMS5003;31404;53.974;-1.086;2023-12-07T17:40:34;23;22;
33264;PMS5003;31404;53.974;-1.086;2023-12-07T17:45:34;19;17;
33264;PMS5003;31404;53.974;-1.086;2023-12-07T17:50:35;25;22;
33264;PMS5003;31404;53.974;-1.086;2023-12-07T17:55:35;22;19;
33264;PMS5003;31404;53.974;-1.086;2023-12-07T18:00:35;13;13;
33264;PMS5003;31404;53.974;-1.086;2023-12-07T18:05:33;19;14;
33264;PMS5003;31404;53.974;-1.086;2023-12-07T18:10:34;19;19;
33264;PMS5003;31404;53.974;-1.086;2023-12-07T18:15:34;15;15;
33264;PMS5003;31404;53.974;-1.086;2023-12-07T18:20:35;20;19;
33264;PMS5003;31404;53.974;-1.086;2023-12-07T18:25:34;19;18;
33264;PMS5003;31404;53.974;-1.086;2023-12-07T18:30:35;19;17;
33264;PMS5003;31404;53.974;-1.086;2023-12-07T18:35:35;26;24;
33264;PMS5003;31404;53.974;-1.086;2023-12-07T18:40:34;19;19;
33264;PMS5003;31404;53.974;-1.086;2023-12-07T18:45:34;24;22;
33264;PMS5003;31404;53.974;-1.086;2023-12-07T18:50:35;26;22;
33264;PMS5003;31404;53.974;-1.086;2023-12-07T18:55:34;24;21;
33264;PMS5003;31404;53.974;-1.086;2023-12-07T19:00:34;20;19;
33264;PMS5003;31404;53.974;-1.086;2023-12-07T19:05:35;22;22;
33264;PMS5003;31404;53.974;-1.086;2023-12-07T19:10:34;21;21;
33264;PMS5003;31404;53.974;-1.086;2023-12-07T19:15:34;21;21;
33264;PMS5003;31404;53.974;-1.086;2023-12-07T19:20:34;17;16;
33264;PMS5003;31404;53.974;-1.086;2023-12-07T19:25:34;21;21;
33264;PMS5003;31404;53.974;-1.086;2023-12-07T19:30:34;25;22;
33264;PMS5003;31404;53.974;-1.086;2023-12-07T19:35:34;23;20;
33264;PMS5003;31404;53.974;-1.086;2023-12-07T19:40:34;18;17;
33264;PMS5003;31404;53.974;-1.086;2023-12-07T19:45:34;27;21;
33264;PMS5003;31404;53.974;-1.086;2023-12-07T19:50:34;21;17;
33264;PMS5003;31404;53.974;-1.086;2023-12-07T19:55:34;18;15;
33264;PMS5003;31404;53.974;-1.086;2023-12-07T20:00:34;14;14;
33264;PMS5003;31404;53.974;-1.086;2023-12-07T20:05:34;14;11;
33264;PMS5003;31404;53.974;-1.086;2023-12-07T20:10:35;12;11;
33264;PMS5003;31404;53.974;-1.086;2023-12-07T20:15:35;14;12;
33264;PMS5003;31404;53.974;-1.086;2023-12-07T20:20:34;12;11;
33264;PMS5003;31404;53.974;-1.086;2023-12-07T20:25:34;14;12;
33264;PMS5003;31404;53.974;-1.086;2023-12-07T20:30:34;12;11;
33264;PMS5003;31404;53.974;-1.086;2023-12-07T20:35:34;11;10;
33264;PMS5003;31404;53.974;-1.086;2023-12-07T20:40:35;10;10;
33264;PMS5003;31404;53.974;-1.086;2023-12-07T20:45:35;18;14;
33264;PMS5003;31404;53.974;-1.086;2023-12-07T20:50:34;13;12;
33264;PMS5003;31404;53.974;-1.086;2023-12-07T20:55:34;17;11;
33264;PMS5003;31404;53.974;-1.086;2023-12-07T21:00:34;12;11;
33264;PMS5003;31404;53.974;-1.086;2023-12-07T21:05:34;13;11;
33264;PMS5003;31404;53.974;-1.086;2023-12-07T21:10:34;11;11;
33264;PMS5003;31404;53.974;-1.086;2023-12-07T21:15:34;13;11;
33264;PMS5003;31404;53.974;-1.086;2023-12-07T21:20:35;11;11;
33264;PMS5003;31404;53.974;-1.086;2023-12-07T21:25:33;10;8;
33264;PMS5003;31404;53.974;-1.086;2023-12-07T21:30:34;8;8;
33264;PMS5003;31404;53.974;-1.086;2023-12-07T21:35:34;10;10;
33264;PMS5003;31404;53.974;-1.086;2023-12-07T21:40:34;8;8;
33264;PMS5003;31404;53.974;-1.086;2023-12-07T21:45:35;7;7;
33264;PMS5003;31404;53.974;-1.086;2023-12-07T21:50:34;9;9;
33264;PMS5003;31404;53.974;-1.086;2023-12-07T21:55:34;9;6;
33264;PMS5003;31404;53.974;-1.086;2023-12-07T22:00:34;12;12;
33264;PMS5003;31404;53.974;-1.086;2023-12-07T22:05:35;9;9;
33264;PMS5003;31404;53.974;-1.086;2023-12-07T22:10:35;7;7;
33264;PMS5003;31404;53.974;-1.086;2023-12-07T22:15:34;8;8;
33264;PMS5003;31404;53.974;-1.086;2023-12-07T22:20:34;14;11;
33264;PMS5003;31404;53.974;-1.086;2023-12-07T22:25:34;13;12;
33264;PMS5003;31404;53.974;-1.086;2023-12-07T22:30:35;16;14;
33264;PMS5003;31404;53.974;-1.086;2023-12-07T22:35:34;12;12;
33264;PMS5003;31404;53.974;-1.086;2023-12-07T22:40:34;18;14;
33264;PMS5003;31404;53.974;-1.086;2023-12-07T22:45:35;14;12;
33264;PMS5003;31404;53.974;-1.086;2023-12-07T22:50:35;13;13;
33264;PMS5003;31404;53.974;-1.086;2023-12-07T22:55:35;16;13;
33264;PMS5003;31404;53.974;-1.086;2023-12-07T23:00:34;12;12;
33264;PMS5003;31404;53.974;-1.086;2023-12-07T23:05:34;19;18;
33264;PMS5003;31404;53.974;-1.086;2023-12-07T23:10:35;13;13;
33264;PMS5003;31404;53.974;-1.086;2023-12-07T23:15:35;17;14;
33264;PMS5003;31404;53.974;-1.086;2023-12-07T23:20:34;14;13;
33264;PMS5003;31404;53.974;-1.086;2023-12-07T23:25:34;22;17;
33264;PMS5003;31404;53.974;-1.086;2023-12-07T23:30:34;19;19;
33264;PMS5003;31404;53.974;-1.086;2023-12-07T23:35:34;19;19;
33264;PMS5003;31404;53.974;-1.086;2023-12-07T23:40:34;18;18;
33264;PMS5003;31404;53.974;-1.086;2023-12-07T23:45:34;18;18;
33264;PMS5003;31404;53.974;-1.086;2023-12-07T23:50:34;15;15;
33264;PMS5003;31404;53.974;-1.086;2023-12-07T23:55:34;23;19;
